Time;durP1;ratioP1;P1;durP2;ratioP2;P2;SDS_P1;SDS_P2;PMS_P1;PMS_P2;Temp;Humidity;BMP_temperature;BMP_pressure;BME280_temperature;BME280_humidity;BME280_pressure;Samples;Min_cycle;Max_cycle;Signal;HPM_P1;HPM_P2
2022/03/05 00:01:07;;;;;;;40.05;23.60;;;;;;;0.15;57.81;99175.84;2620442;54;20033;-64
2022/03/05 00:03:39;;;;;;;39.63;22.17;;;;;;;0.23;58.14;99172.66;2621315;54;20022;-64
2022/03/05 00:06:09;;;;;;;40.65;22.77;;;;;;;0.29;57.88;99173.97;2621059;54;20041;-65
2022/03/05 00:08:38;;;;;;;42.65;23.65;;;;;;;0.19;58.20;99179.03;2621659;54;20043;-63
2022/03/05 00:11:08;;;;;;;42.80;25.02;;;;;;;0.14;57.90;99175.97;2619991;54;20041;-65
2022/03/05 00:13:38;;;;;;;55.28;31.25;;;;;;;0.13;58.05;99174.31;2619709;54;20038;-64
2022/03/05 00:16:08;;;;;;;51.45;27.15;;;;;;;0.15;58.40;99172.41;2619145;54;20038;-65
2022/03/05 00:18:41;;;;;;;41.38;22.80;;;;;;;0.01;58.63;99177.84;2619427;54;20077;-64
2022/03/05 00:21:10;;;;;;;47.97;24.95;;;;;;;-0.05;58.90;99172.16;2619578;54;20091;-62
2022/03/05 00:23:40;;;;;;;42.15;23.63;;;;;;;0.01;58.54;99168.28;2620458;54;20038;-63
2022/03/05 00:26:11;;;;;;;41.35;22.30;;;;;;;-0.02;58.28;99176.28;2620153;54;20069;-63
2022/03/05 00:28:41;;;;;;;39.63;22.75;;;;;;;-0.08;58.40;99168.97;2620791;39;20414;-63
2022/03/05 00:31:11;;;;;;;42.03;22.90;;;;;;;-0.08;58.80;99176.78;2620235;54;20047;-63
2022/03/05 00:33:43;;;;;;;37.95;21.60;;;;;;;-0.05;59.03;99179.94;2619615;47;20556;-63
2022/03/05 00:36:12;;;;;;;41.35;23.38;;;;;;;-0.07;58.90;99179.25;2620102;54;20070;-63
2022/03/05 00:38:42;;;;;;;41.78;21.67;;;;;;;-0.04;58.77;99184.22;2620078;46;20584;-64
2022/03/05 00:41:12;;;;;;;41.47;23.75;;;;;;;0.07;58.93;99182.56;2619294;54;20030;-64
2022/03/05 00:43:41;;;;;;;38.33;21.92;;;;;;;0.08;59.04;99186.81;2619242;54;20027;-65
2022/03/05 00:46:11;;;;;;;39.95;22.60;;;;;;;0.19;58.45;99192.84;2619086;51;20031;-64
2022/03/05 00:48:44;;;;;;;46.53;24.17;;;;;;;0.26;58.46;99193.22;2619159;54;20038;-62
2022/03/05 00:51:13;;;;;;;43.63;24.58;;;;;;;0.33;58.42;99189.22;2620171;54;20045;-60
2022/03/05 00:53:43;;;;;;;50.75;26.25;;;;;;;0.28;58.60;99193.09;2620148;54;20045;-62
2022/03/05 00:56:13;;;;;;;46.83;26.25;;;;;;;0.22;58.69;99194.41;2619843;54;20563;-63
2022/03/05 00:58:43;;;;;;;47.35;26.40;;;;;;;0.26;59.08;99193.22;2620048;54;20038;-62
2022/03/05 01:01:13;;;;;;;48.13;25.20;;;;;;;0.27;59.05;99197.47;2619910;54;20577;-62
2022/03/05 01:03:45;;;;;;;46.28;25.75;;;;;;;0.28;59.03;99196.50;2619851;54;20522;-62
2022/03/05 01:06:15;;;;;;;45.75;25.23;;;;;;;0.33;59.30;99194.41;2620358;54;20026;-63
2022/03/05 01:08:45;;;;;;;48.80;26.95;;;;;;;0.39;59.26;99193.09;2620174;54;20497;-62
2022/03/05 01:11:16;;;;;;;46.42;25.38;;;;;;;0.39;59.11;99193.09;2620483;54;20052;-62
2022/03/05 01:13:46;;;;;;;53.35;27.40;;;;;;;0.38;59.04;99192.28;2620801;54;20556;-62
2022/03/05 01:16:16;;;;;;;46.92;27.48;;;;;;;0.41;58.95;99191.22;2620224;54;20034;-63
2022/03/05 01:18:49;;;;;;;51.80;28.02;;;;;;;0.21;58.98;99190.97;2621992;54;20030;-61
2022/03/05 01:21:19;;;;;;;51.33;27.75;;;;;;;0.02;59.56;99185.50;2621010;54;20055;-62
2022/03/05 01:23:49;;;;;;;52.50;28.55;;;;;;;-0.23;59.91;99183.94;2621834;54;20041;-62
2022/03/05 01:26:18;;;;;;;47.40;27.23;;;;;;;-0.44;59.76;99181.16;2621743;54;20039;-62
2022/03/05 01:28:48;;;;;;;49.05;25.38;;;;;;;-0.61;60.92;99181.59;2620276;54;20041;-61
2022/03/05 01:31:18;;;;;;;41.95;23.63;;;;;;;-0.61;61.16;99185.00;2620330;39;20721;-62
2022/03/05 01:33:50;;;;;;;45.63;24.25;;;;;;;-0.52;61.25;99183.50;2619591;54;20077;-60
2022/03/05 01:36:19;;;;;;;40.33;23.63;;;;;;;-0.51;60.90;99179.97;2620257;54;20117;-62
2022/03/05 01:38:49;;;;;;;43.50;22.02;;;;;;;-0.58;60.90;99183.94;2620309;54;20031;-61
2022/03/05 01:41:19;;;;;;;39.05;21.75;;;;;;;-0.64;60.77;99174.84;2620099;54;20038;-64
2022/03/05 01:43:51;;;;;;;40.20;22.08;;;;;;;-0.69;60.88;99183.91;2619869;47;20035;-62
2022/03/05 01:46:30;;;;;;;38.63;21.77;;;;;;;-0.74;61.29;99184.22;2620617;54;20026;-61
2022/03/05 01:49:03;;;;;;;39.58;21.42;;;;;;;-0.71;61.52;99180.59;2620527;54;20121;-61
2022/03/05 01:51:34;;;;;;;38.13;19.60;;;;;;;-0.68;61.00;99178.59;2620564;54;20506;-61
2022/03/05 01:54:05;;;;;;;37.53;21.33;;;;;;;-0.71;61.17;99178.00;2620692;54;20026;-60
2022/03/05 01:56:36;;;;;;;39.25;20.88;;;;;;;-0.78;61.25;99170.69;2620494;54;20042;-61
2022/03/05 01:59:06;;;;;;;39.92;21.02;;;;;;;-0.81;61.06;99186.47;2620652;54;20035;-62
2022/03/05 02:01:36;;;;;;;31.33;18.20;;;;;;;-0.78;61.64;99178.47;2619706;54;20049;-62
2022/03/05 02:04:09;;;;;;;36.83;20.00;;;;;;;-0.62;61.44;99174.72;2620181;54;20022;-62
2022/03/05 02:06:38;;;;;;;36.33;19.98;;;;;;;-0.61;61.17;99179.81;2621177;54;20050;-63
2022/03/05 02:09:08;;;;;;;36.22;20.63;;;;;;;-0.62;60.92;99182.50;2620838;54;20096;-63
2022/03/05 02:11:37;;;;;;;39.83;20.38;;;;;;;-0.64;61.28;99187.00;2620088;54;20039;-63
2022/03/05 02:14:07;;;;;;;34.90;19.15;;;;;;;-0.55;61.16;99175.94;2620406;54;20033;-63
2022/03/05 02:16:37;;;;;;;39.55;20.70;;;;;;;-0.55;60.72;99171.56;2620697;54;20031;-63
2022/03/05 02:19:09;;;;;;;38.67;19.85;;;;;;;-0.43;61.29;99172.44;2619776;54;20030;-62
2022/03/05 02:21:41;;;;;;;43.65;22.77;;;;;;;-0.52;60.62;99176.53;2620340;54;20030;-62
2022/03/05 02:24:11;;;;;;;43.70;22.27;;;;;;;-0.67;61.31;99169.88;2619978;54;20145;-62
2022/03/05 02:26:41;;;;;;;39.00;20.90;;;;;;;-0.66;61.64;99168.91;2620177;54;20053;-63
2022/03/05 02:29:10;;;;;;;40.55;22.48;;;;;;;-0.67;61.37;99174.25;2620742;54;20030;-63
2022/03/05 02:31:40;;;;;;;39.83;21.67;;;;;;;-0.63;61.78;99168.69;2619530;54;20077;-63
2022/03/05 02:34:09;;;;;;;37.75;20.85;;;;;;;-0.62;61.34;99172.94;2619371;54;20031;-62
2022/03/05 02:36:41;;;;;;;39.17;21.33;;;;;;;-0.65;61.32;99167.19;2619550;54;20026;-62
2022/03/05 02:39:11;;;;;;;45.88;23.98;;;;;;;-0.89;61.69;99174.97;2620219;54;20035;-62
2022/03/05 02:41:41;;;;;;;41.42;23.02;;;;;;;-0.88;62.03;99176.63;2619482;54;20033;-63
2022/03/05 02:44:11;;;;;;;44.17;22.00;;;;;;;-0.80;61.89;99179.50;2619131;54;20030;-61
2022/03/05 02:46:41;;;;;;;42.60;21.35;;;;;;;-0.65;61.86;99172.38;2619605;54;20031;-61
2022/03/05 02:49:11;;;;;;;40.45;22.02;;;;;;;-0.57;61.71;99170.03;2619798;54;20041;-62
2022/03/05 02:51:43;;;;;;;42.58;23.88;;;;;;;-0.53;61.51;99172.28;2619204;54;20042;-62
2022/03/05 02:54:12;;;;;;;43.63;23.48;;;;;;;-0.45;61.20;99173.47;2618825;47;20038;-61
2022/03/05 02:56:42;;;;;;;42.58;23.15;;;;;;;-0.40;60.89;99173.97;2620027;39;20426;-62
2022/03/05 02:59:12;;;;;;;43.35;23.10;;;;;;;-0.44;61.28;99172.56;2619762;54;20033;-61
2022/03/05 03:01:41;;;;;;;41.55;22.55;;;;;;;-0.42;61.23;99173.25;2619196;54;20034;-62
2022/03/05 03:04:11;;;;;;;44.33;23.50;;;;;;;-0.54;61.25;99178.41;2619875;54;20073;-63
2022/03/05 03:06:43;;;;;;;40.72;22.33;;;;;;;-0.58;61.46;99169.19;2620182;54;20030;-62
2022/03/05 03:09:13;;;;;;;41.75;23.23;;;;;;;-0.67;60.96;99176.84;2620674;54;20034;-62
2022/03/05 03:11:43;;;;;;;41.72;22.27;;;;;;;-0.85;61.84;99173.81;2619333;54;20133;-63
2022/03/05 03:14:13;;;;;;;42.63;22.75;;;;;;;-0.95;61.92;99176.22;2619363;54;20038;-65
2022/03/05 03:16:43;;;;;;;45.65;23.45;;;;;;;-1.01;61.99;99177.50;2619664;54;20027;-62
2022/03/05 03:19:12;;;;;;;45.35;22.35;;;;;;;-1.09;61.95;99173.81;2619258;54;20031;-62
2022/03/05 03:21:44;;;;;;;41.25;22.60;;;;;;;-1.15;62.43;99175.06;2619248;54;20038;-62
2022/03/05 03:24:14;;;;;;;43.65;22.13;;;;;;;-1.32;62.75;99184.03;2619068;54;20038;-62
2022/03/05 03:26:45;;;;;;;44.50;21.98;;;;;;;-1.41;62.95;99182.09;2618913;54;20057;-62
2022/03/05 03:29:15;;;;;;;43.65;21.27;;;;;;;-1.39;63.16;99174.19;2619090;39;20508;-62
2022/03/05 03:31:44;;;;;;;38.17;20.85;;;;;;;-1.31;62.95;99179.69;2619199;54;20045;-63
2022/03/05 03:34:14;;;;;;;35.63;20.65;;;;;;;-1.23;62.82;99177.38;2618667;54;20031;-63
2022/03/05 03:36:46;;;;;;;40.20;20.17;;;;;;;-1.27;62.45;99181.13;2618429;54;20041;-63
2022/03/05 03:39:16;;;;;;;43.30;21.73;;;;;;;-1.40;63.09;99182.94;2618511;39;20426;-62
2022/03/05 03:41:46;;;;;;;40.35;20.98;;;;;;;-1.41;63.18;99183.88;2618170;54;20061;-62
2022/03/05 03:44:16;;;;;;;40.40;20.58;;;;;;;-1.34;62.86;99175.56;2618242;54;20038;-62
2022/03/05 03:46:46;;;;;;;40.65;21.02;;;;;;;-1.32;63.25;99178.84;2617589;47;20026;-62
2022/03/05 03:49:15;;;;;;;40.00;21.02;;;;;;;-1.33;63.16;99182.41;2618306;54;20031;-62
2022/03/05 03:51:48;;;;;;;42.22;20.95;;;;;;;-1.38;62.99;99174.13;2617642;47;20050;-62
2022/03/05 03:54:18;;;;;;;41.40;20.25;;;;;;;-1.43;62.77;99181.41;2618274;39;20422;-63
2022/03/05 03:56:47;;;;;;;38.55;19.20;;;;;;;-1.52;62.92;99177.66;2617830;47;20557;-63
2022/03/05 03:59:17;;;;;;;40.28;19.33;;;;;;;-1.54;63.41;99181.31;2618423;54;20042;-63
2022/03/05 04:01:47;;;;;;;35.92;18.77;;;;;;;-1.50;63.35;99191.34;2619339;54;20046;-62
2022/03/05 04:04:17;;;;;;;31.52;18.13;;;;;;;-1.49;63.45;99184.41;2618998;54;20026;-62
2022/03/05 04:09:31;;;;;;;;;;;;;;;-1.47;63.67;99187.72;2619783;54;20540;-62
2022/03/05 04:12:00;;;;;;;32.03;16.55;;;;;;;-1.52;63.11;99177.66;2619154;54;19939;-62
2022/03/05 04:14:30;;;;;;;35.63;17.52;;;;;;;-1.51;63.42;99183.69;2618509;47;20533;-63
2022/03/05 04:17:00;;;;;;;42.88;18.80;;;;;;;-1.48;63.68;99191.25;2619114;54;20035;-62
2022/03/05 04:19:30;;;;;;;35.47;17.40;;;;;;;-1.47;63.45;99192.91;2619170;54;20042;-63
2022/03/05 04:22:02;;;;;;;36.85;19.35;;;;;;;-1.52;63.78;99193.22;2619093;54;20035;-62
2022/03/05 04:24:31;;;;;;;39.33;18.63;;;;;;;-1.55;63.84;99188.25;2621002;54;20042;-63
2022/03/05 04:27:01;;;;;;;34.25;17.17;;;;;;;-1.54;63.97;99195.09;2620717;39;20341;-62
2022/03/05 04:29:31;;;;;;;38.60;18.52;;;;;;;-1.52;64.11;99190.63;2620015;54;20026;-62
2022/03/05 04:32:00;;;;;;;37.47;18.50;;;;;;;-1.53;63.50;99190.75;2619593;54;20537;-62
2022/03/05 04:34:30;;;;;;;37.25;17.88;;;;;;;-1.61;63.83;99186.06;2619104;54;20041;-62
2022/03/05 04:37:02;;;;;;;34.88;18.42;;;;;;;-1.63;63.71;99194.91;2618983;54;20102;-63
2022/03/05 04:39:32;;;;;;;35.47;18.02;;;;;;;-1.73;63.65;99194.69;2619186;54;20102;-63
2022/03/05 04:42:03;;;;;;;32.08;17.23;;;;;;;-1.85;64.04;99192.94;2618574;47;20034;-63
2022/03/05 04:44:33;;;;;;;39.55;20.08;;;;;;;-1.95;64.53;99190.16;2619815;54;20027;-63
2022/03/05 04:47:02;;;;;;;35.38;18.45;;;;;;;-1.98;65.25;99197.31;2624325;54;20031;-63
2022/03/05 04:49:32;;;;;;;37.72;18.58;;;;;;;-2.01;65.44;99191.38;2624352;54;20034;-62
2022/03/05 04:52:05;;;;;;;40.35;19.02;;;;;;;-1.94;65.70;99191.00;2624353;54;20045;-62
2022/03/05 04:54:34;;;;;;;38.72;19.10;;;;;;;-1.91;65.65;99204.56;2623568;54;20062;-62
2022/03/05 04:57:05;;;;;;;38.40;19.10;;;;;;;-1.89;65.60;99194.91;2623715;47;20037;-62
2022/03/05 04:59:35;;;;;;;32.28;18.25;;;;;;;-1.80;65.44;99203.81;2624427;54;20038;-62
2022/03/05 05:02:05;;;;;;;40.55;20.10;;;;;;;-1.62;65.06;99197.38;2624034;46;20143;-62
2022/03/05 05:04:35;;;;;;;39.08;18.95;;;;;;;-1.45;65.01;99201.41;2624965;39;20414;-62
2022/03/05 05:07:08;;;;;;;42.60;20.85;;;;;;;-1.41;64.92;99205.44;2622167;39;20524;-62
2022/03/05 05:09:40;;;;;;;35.58;18.55;;;;;;;-1.44;64.66;99203.06;2619911;54;20027;-62
2022/03/05 05:12:11;;;;;;;40.47;20.70;;;;;;;-1.40;64.25;99208.84;2619283;54;20035;-62
2022/03/05 05:14:40;;;;;;;42.97;20.13;;;;;;;-1.46;64.37;99209.31;2619165;54;20034;-63
2022/03/05 05:17:11;;;;;;;36.60;19.38;;;;;;;-1.55;64.33;99206.41;2619190;39;20433;-62
2022/03/05 05:19:41;;;;;;;39.65;20.55;;;;;;;-1.53;64.24;99212.31;2618781;54;20038;-65
2022/03/05 05:22:13;;;;;;;42.53;22.00;;;;;;;-1.60;64.31;99211.06;2618694;54;20034;-63
2022/03/05 05:24:42;;;;;;;41.50;21.35;;;;;;;-1.64;64.75;99219.97;2618523;54;20034;-63
2022/03/05 05:27:13;;;;;;;42.28;21.92;;;;;;;-1.64;64.46;99221.75;2618050;47;20033;-63
2022/03/05 05:29:42;;;;;;;44.13;20.92;;;;;;;-1.59;64.86;99217.09;2619678;31;20462;-63
2022/03/05 05:32:12;;;;;;;39.78;20.40;;;;;;;-1.54;64.86;99225.38;2618781;54;20033;-63
2022/03/05 05:34:44;;;;;;;46.00;20.65;;;;;;;-1.44;64.65;99225.56;2617844;54;20073;-63
2022/03/05 05:37:20;;;;;;;44.33;21.42;;;;;;;-1.40;64.16;99227.84;2619324;39;20169;-63
2022/03/05 05:39:49;;;;;;;42.80;20.83;;;;;;;-1.35;64.26;99227.50;2622677;39;20446;-62
2022/03/05 05:42:25;;;;;;;43.08;20.35;;;;;;;-1.40;63.94;99229.59;2620902;39;20461;-64
2022/03/05 05:44:54;;;;;;;42.33;20.90;;;;;;;-1.59;64.09;99225.72;2618678;54;20034;-63
2022/03/05 05:47:24;;;;;;;41.25;20.33;;;;;;;-1.68;64.66;99228.06;2619207;39;20465;-63
2022/03/05 05:49:54;;;;;;;41.17;20.25;;;;;;;-1.66;64.62;99241.78;2618565;54;20041;-63
2022/03/05 05:52:26;;;;;;;40.97;19.58;;;;;;;-1.73;64.53;99240.53;2618047;54;20039;-63
2022/03/05 05:54:56;;;;;;;41.20;21.45;;;;;;;-1.71;64.68;99238.69;2618287;54;20037;-62
2022/03/05 05:57:25;;;;;;;38.40;20.00;;;;;;;-1.69;65.13;99248.00;2619333;39;20512;-63
2022/03/05 05:59:55;;;;;;;44.03;21.80;;;;;;;-1.73;65.21;99240.53;2621956;54;20070;-64
2022/03/05 06:02:24;;;;;;;42.95;21.13;;;;;;;-1.63;65.20;99241.59;2622020;54;20042;-63
2022/03/05 06:04:54;;;;;;;42.72;20.17;;;;;;;-1.55;64.94;99247.06;2621900;54;20035;-63
2022/03/05 06:07:26;;;;;;;42.45;21.23;;;;;;;-1.47;64.70;99251.69;2622362;54;20587;-61
2022/03/05 06:09:56;;;;;;;42.28;20.90;;;;;;;-1.54;64.66;99248.72;2622717;54;20030;-61
2022/03/05 06:12:25;;;;;;;43.42;21.83;;;;;;;-1.57;64.83;99243.75;2622503;54;20026;-61
2022/03/05 06:14:55;;;;;;;43.13;20.13;;;;;;;-1.62;64.77;99251.84;2621841;54;20034;-66
2022/03/05 06:17:24;;;;;;;42.50;21.25;;;;;;;-1.64;64.89;99253.69;2621238;54;20042;-64
2022/03/05 06:19:54;;;;;;;39.00;19.88;;;;;;;-1.58;64.61;99253.28;2621841;54;20053;-61
2022/03/05 06:22:26;;;;;;;44.78;22.27;;;;;;;-1.56;64.57;99253.16;2622153;54;20026;-63
2022/03/05 06:24:56;;;;;;;50.17;21.75;;;;;;;-1.51;64.82;99261.47;2623638;39;20511;-64
2022/03/05 06:27:28;;;;;;;46.38;22.80;;;;;;;-1.51;64.51;99258.91;2622162;47;20134;-61
2022/03/05 06:29:58;;;;;;;45.92;21.65;;;;;;;-1.54;64.26;99264.28;2622239;54;20030;-61
2022/03/05 06:32:27;;;;;;;42.42;20.48;;;;;;;-1.51;64.68;99264.91;2617814;54;20038;-62
2022/03/05 06:34:57;;;;;;;44.80;21.02;;;;;;;-1.49;64.47;99272.56;2618543;54;20170;-64
2022/03/05 06:37:29;;;;;;;43.70;20.23;;;;;;;-1.51;64.53;99274.44;2618249;47;20031;-62
2022/03/05 06:39:59;;;;;;;44.90;20.42;;;;;;;-1.48;64.69;99279.41;2617858;47;20031;-61
2022/03/05 06:42:29;;;;;;;47.60;22.63;;;;;;;-1.42;64.85;99283.34;2619037;39;20437;-60
2022/03/05 06:44:59;;;;;;;50.33;22.80;;;;;;;-1.37;64.68;99287.28;2618549;54;20038;-61
2022/03/05 06:47:30;;;;;;;42.42;21.58;;;;;;;-1.28;64.67;99278.03;2617909;54;20023;-64
2022/03/05 06:50:00;;;;;;;43.20;21.77;;;;;;;-1.25;64.76;99283.03;2618583;54;20070;-61
2022/03/05 06:52:32;;;;;;;44.45;21.00;;;;;;;-1.17;64.77;99279.91;2618386;54;20043;-61
2022/03/05 06:55:03;;;;;;;46.30;22.48;;;;;;;-1.15;64.29;99278.84;2618318;54;20039;-63
2022/03/05 06:57:33;;;;;;;46.28;22.98;;;;;;;-1.15;64.39;99278.00;2619066;39;20407;-61
2022/03/05 07:00:03;;;;;;;44.08;21.70;;;;;;;-1.05;64.31;99286.84;2617873;54;20041;-61
2022/03/05 07:02:32;;;;;;;43.83;21.35;;;;;;;-0.96;64.50;99285.34;2618066;54;20038;-62
2022/03/05 07:05:02;;;;;;;46.42;22.75;;;;;;;-0.92;64.03;99279.00;2619166;39;20456;-62
2022/03/05 07:07:37;;;;;;;42.55;23.60;;;;;;;-0.84;64.32;99292.28;2618940;54;20042;-62
2022/03/05 07:10:09;;;;;;;48.88;23.90;;;;;;;-0.76;64.34;99289.97;2623942;39;20437;-62
2022/03/05 07:12:39;;;;;;;48.45;23.00;;;;;;;-0.69;64.34;99291.19;2622971;39;20588;-62
2022/03/05 07:15:10;;;;;;;49.50;22.70;;;;;;;-0.63;64.03;99298.53;2621922;54;20038;-63
2022/03/05 07:17:39;;;;;;;42.72;21.85;;;;;;;-0.55;64.02;99290.19;2622221;54;20564;-63
2022/03/05 07:20:10;;;;;;;53.38;24.45;;;;;;;-0.44;63.53;99299.81;2622582;54;20111;-63
2022/03/05 07:22:42;;;;;;;43.63;21.65;;;;;;;-0.52;63.80;99301.19;2623469;46;20061;-62
2022/03/05 07:25:12;;;;;;;39.55;20.52;;;;;;;-0.46;63.71;99299.09;2622808;54;20094;-62
2022/03/05 07:27:42;;;;;;;37.55;20.30;;;;;;;-0.33;64.22;99302.47;2622691;54;20102;-62
2022/03/05 07:30:13;;;;;;;42.80;23.15;;;;;;;-0.30;63.73;99300.47;2620335;54;20034;-62
2022/03/05 07:32:44;;;;;;;46.17;23.17;;;;;;;-0.37;63.87;99306.22;2619782;54;20033;-61
2022/03/05 07:35:14;;;;;;;39.30;20.45;;;;;;;-0.41;63.60;99304.78;2618723;54;20534;-63
2022/03/05 07:37:46;;;;;;;40.83;22.35;;;;;;;-0.32;63.69;99302.38;2618193;54;20042;-61
2022/03/05 07:40:19;;;;;;;40.47;20.05;;;;;;;-0.31;63.96;99317.00;2618595;47;20485;-61
2022/03/05 07:42:49;;;;;;;39.65;19.83;;;;;;;-0.22;64.25;99306.88;2618462;54;20039;-62
2022/03/05 07:45:19;;;;;;;41.85;20.55;;;;;;;-0.04;63.70;99311.56;2618037;54;20051;-62
2022/03/05 07:47:48;;;;;;;34.80;17.77;;;;;;;0.03;63.97;99309.34;2618364;54;20561;-62
2022/03/05 07:50:18;;;;;;;42.38;20.15;;;;;;;0.16;63.88;99306.66;2618394;54;20039;-61
2022/03/05 07:52:50;;;;;;;36.42;18.35;;;;;;;0.18;63.20;99310.81;2618609;54;20040;-62
2022/03/05 07:55:20;;;;;;;38.13;19.73;;;;;;;0.25;63.23;99300.78;2618593;54;20038;-63
2022/03/05 07:57:50;;;;;;;40.85;22.13;;;;;;;0.36;63.28;99308.59;2618709;54;20043;-63
2022/03/05 08:00:20;;;;;;;38.83;19.40;;;;;;;0.41;63.38;99306.50;2618466;54;20035;-63
2022/03/05 08:02:51;;;;;;;49.17;24.13;;;;;;;0.51;63.47;99311.00;2618544;54;20041;-63
2022/03/05 08:05:21;;;;;;;44.25;20.90;;;;;;;0.57;63.25;99306.16;2618364;54;20030;-61
2022/03/05 08:07:55;;;;;;;35.92;18.98;;;;;;;0.62;63.24;99313.63;2618287;54;20026;-62
2022/03/05 08:10:25;;;;;;;40.72;21.70;;;;;;;0.67;62.83;99311.47;2618480;54;20038;-62
2022/03/05 08:12:54;;;;;;;36.65;19.05;;;;;;;0.74;63.57;99317.88;2621445;54;20037;-63
2022/03/05 08:15:24;;;;;;;37.45;19.63;;;;;;;0.90;63.09;99314.94;2619843;54;20031;-61
2022/03/05 08:17:55;;;;;;;35.55;18.60;;;;;;;1.03;63.17;99320.84;2619906;54;20034;-62
2022/03/05 08:20:26;;;;;;;37.95;18.30;;;;;;;1.15;62.78;99312.06;2622668;54;20038;-62
2022/03/05 08:22:59;;;;;;;36.70;17.48;;;;;;;1.20;62.26;99320.34;2619515;54;20549;-63
2022/03/05 08:25:29;;;;;;;32.23;16.73;;;;;;;1.28;61.86;99314.53;2617803;47;20042;-65
2022/03/05 08:27:59;;;;;;;32.08;16.85;;;;;;;1.38;61.42;99314.63;2619880;39;20650;-64
2022/03/05 08:30:29;;;;;;;29.67;16.25;;;;;;;1.52;61.64;99313.53;2618826;54;20069;-62
2022/03/05 08:33:02;;;;;;;32.88;17.83;;;;;;;1.68;61.45;99316.56;2619697;31;20478;-62
2022/03/05 08:35:31;;;;;;;32.17;17.25;;;;;;;1.78;60.08;99316.66;2620597;54;20030;-62
2022/03/05 08:38:06;;;;;;;34.83;17.13;;;;;;;1.76;59.57;99311.56;2619931;54;20041;-66
2022/03/05 08:40:36;;;;;;;26.30;16.10;;;;;;;1.85;59.63;99321.25;2620422;54;20042;-62
2022/03/05 08:43:06;;;;;;;30.05;16.80;;;;;;;1.94;59.67;99320.50;2620573;54;20045;-63
2022/03/05 08:45:36;;;;;;;28.45;15.63;;;;;;;2.03;58.87;99316.31;2620273;54;20038;-61
2022/03/05 08:48:07;;;;;;;28.17;16.52;;;;;;;2.09;59.29;99313.22;2621148;54;20572;-62
2022/03/05 08:50:38;;;;;;;30.33;16.83;;;;;;;2.25;59.09;99309.34;2621018;54;20027;-63
2022/03/05 08:53:10;;;;;;;29.92;16.15;;;;;;;2.39;58.58;99309.00;2618892;54;20034;-61
2022/03/05 08:55:41;;;;;;;27.23;14.85;;;;;;;2.48;57.52;99310.84;2619063;54;20043;-62
2022/03/05 08:58:10;;;;;;;28.90;16.25;;;;;;;2.58;57.52;99303.09;2618589;47;20042;-62
2022/03/05 09:00:40;;;;;;;27.10;16.25;;;;;;;2.68;57.41;99301.34;2619475;39;20415;-63
2022/03/05 09:03:10;;;;;;;26.38;15.10;;;;;;;2.81;57.46;99295.88;2618520;39;20684;-62
2022/03/05 09:05:40;;;;;;;25.27;14.18;;;;;;;2.90;57.13;99295.13;2618338;47;20056;-64
2022/03/05 09:08:13;;;;;;;26.48;14.70;;;;;;;3.06;56.34;99298.06;2619429;54;20553;-63
2022/03/05 09:10:43;;;;;;;20.90;12.95;;;;;;;3.16;55.16;99298.09;2618554;47;20045;-64
2022/03/05 09:13:13;;;;;;;24.00;12.88;;;;;;;3.22;54.23;99301.00;2619016;54;20038;-63
2022/03/05 09:15:42;;;;;;;21.33;11.88;;;;;;;3.34;53.10;99290.41;2619068;54;20133;-63
2022/03/05 09:18:13;;;;;;;21.60;14.18;;;;;;;3.41;53.29;99299.38;2618988;54;20034;-64
2022/03/05 09:20:47;;;;;;;21.65;13.43;;;;;;;3.53;52.31;99300.91;2619162;54;20038;-64
2022/03/05 09:23:19;;;;;;;17.52;11.50;;;;;;;3.67;51.79;99289.22;2619110;54;20045;-63
2022/03/05 09:25:49;;;;;;;19.05;10.90;;;;;;;3.80;50.65;99292.41;2618038;47;20546;-62
2022/03/05 09:28:18;;;;;;;20.83;12.70;;;;;;;3.86;50.38;99294.47;2618670;54;20153;-64
2022/03/05 09:30:48;;;;;;;17.42;11.73;;;;;;;3.94;51.14;99291.16;2618366;54;20022;-65
2022/03/05 09:33:21;;;;;;;21.80;11.48;;;;;;;4.05;50.59;99295.44;2617802;46;20029;-64
2022/03/05 09:35:50;;;;;;;19.23;11.98;;;;;;;4.17;50.22;99295.16;2618169;54;20026;-64
2022/03/05 09:38:22;;;;;;;17.30;11.07;;;;;;;4.29;48.51;99293.22;2618703;54;20565;-63
2022/03/05 09:40:52;;;;;;;21.80;13.25;;;;;;;4.40;48.03;99300.88;2618964;54;20031;-63
2022/03/05 09:43:23;;;;;;;19.85;11.70;;;;;;;4.46;48.17;99299.50;2619238;54;20131;-64
2022/03/05 09:45:54;;;;;;;18.45;12.00;;;;;;;4.52;48.24;99298.94;2618807;54;20042;-63
2022/03/05 09:48:25;;;;;;;19.05;11.98;;;;;;;4.66;47.82;99295.06;2620688;54;20542;-63
2022/03/05 09:50:55;;;;;;;18.38;10.95;;;;;;;4.73;46.96;99290.88;2621911;47;20023;-63
2022/03/05 09:53:30;;;;;;;18.20;11.90;;;;;;;4.81;46.98;99295.41;2622354;54;20037;-62
2022/03/05 09:56:00;;;;;;;17.90;11.60;;;;;;;4.88;46.55;99292.06;2622114;39;20478;-63
2022/03/05 09:58:47;;;;;;;16.15;10.77;;;;;;;4.91;45.71;99286.53;2621638;54;20038;-63
2022/03/05 10:01:17;;;;;;;15.02;9.63;;;;;;;4.99;45.47;99290.25;2622544;54;20030;-62
2022/03/05 10:03:49;;;;;;;16.67;10.98;;;;;;;5.04;44.90;99288.00;2622313;54;20034;-63
2022/03/05 10:06:20;;;;;;;14.93;9.05;;;;;;;5.11;44.01;99284.66;2621937;54;20031;-63
2022/03/05 10:08:55;;;;;;;16.73;10.52;;;;;;;5.17;44.14;99283.25;2622118;54;20546;-63
2022/03/05 10:11:26;;;;;;;16.40;10.40;;;;;;;5.27;44.68;99277.97;2622324;54;20031;-62
2022/03/05 10:13:56;;;;;;;14.82;9.50;;;;;;;5.31;43.62;99280.13;2620261;54;20033;-62
2022/03/05 10:16:33;;;;;;;16.02;10.18;;;;;;;5.38;42.67;99278.56;2618272;54;20074;-64
2022/03/05 10:19:18;;;;;;;13.55;9.07;;;;;;;5.44;42.09;99280.59;2618594;54;20030;-63
2022/03/05 10:21:59;;;;;;;15.40;9.77;;;;;;;5.32;42.43;99273.91;2618533;54;20035;-61
2022/03/05 10:24:38;;;;;;;14.48;9.48;;;;;;;5.52;41.58;99285.09;2618344;54;20045;-63
2022/03/05 10:27:10;;;;;;;12.57;8.48;;;;;;;5.61;41.20;99286.84;2617505;54;20628;-63
2022/03/05 10:29:41;;;;;;;13.20;8.63;;;;;;;5.68;41.27;99280.03;2618251;54;20031;-62
2022/03/05 10:32:16;;;;;;;13.75;9.25;;;;;;;5.78;40.47;99279.94;2618199;54;20073;-63
2022/03/05 10:34:55;;;;;;;;;;;;;;;5.76;40.78;99270.59;2618288;54;20033;-62
2022/03/05 10:37:26;;;;;;;13.40;7.93;;;;;;;5.87;39.51;99270.34;2618843;39;20361;-62
2022/03/05 10:39:58;;;;;;;11.80;7.63;;;;;;;5.92;38.36;99266.34;2618269;54;20031;-63
2022/03/05 10:42:29;;;;;;;12.45;7.68;;;;;;;5.95;38.24;99266.00;2617769;54;20034;-63
2022/03/05 10:45:03;;;;;;;10.52;8.25;;;;;;;5.99;38.33;99271.78;2618090;54;20034;-63
2022/03/05 10:47:43;;;;;;;13.93;8.68;;;;;;;6.02;38.18;99266.25;2618256;54;20030;-62
2022/03/05 10:50:24;;;;;;;14.05;8.32;;;;;;;6.09;38.00;99272.53;2619195;54;20546;-62
2022/03/05 10:52:57;;;;;;;13.40;8.80;;;;;;;6.20;36.73;99261.78;2621018;39;20453;-62
2022/03/05 10:55:31;;;;;;;11.30;7.63;;;;;;;6.30;36.71;99261.69;2617702;54;20537;-64
2022/03/05 10:58:04;;;;;;;13.15;9.25;;;;;;;6.31;37.17;99260.69;2617968;54;20030;-63
2022/03/05 11:00:34;;;;;;;13.37;8.63;;;;;;;6.35;37.15;99261.22;2618040;54;20034;-63
2022/03/05 11:03:04;;;;;;;14.52;8.82;;;;;;;6.41;36.56;99258.81;2617907;54;20027;-63
2022/03/05 11:05:36;;;;;;;12.57;8.98;;;;;;;6.43;36.39;99261.28;2618125;39;20413;-63
2022/03/05 11:08:07;;;;;;;8.55;6.50;;;;;;;6.57;35.06;99260.72;2617503;54;20030;-64
2022/03/05 11:10:41;;;;;;;9.75;7.20;;;;;;;6.55;34.92;99260.03;2617955;54;20027;-63
2022/03/05 11:13:10;;;;;;;11.50;7.13;;;;;;;6.53;34.96;99259.38;2617317;47;20031;-62
2022/03/05 11:15:42;;;;;;;11.82;8.55;;;;;;;6.45;35.16;99262.78;2617915;54;20346;-72
2022/03/05 11:18:12;;;;;;;11.02;6.88;;;;;;;6.50;34.62;99256.22;2617630;39;20121;-73
2022/03/05 11:20:47;;;;;;;9.30;7.00;;;;;;;6.57;35.39;99252.00;2617932;54;20034;-68
2022/03/05 11:23:17;;;;;;;12.13;8.13;;;;;;;6.62;35.45;99252.38;2618325;39;20428;-69
2022/03/05 11:25:50;;;;;;;9.50;7.00;;;;;;;6.75;34.92;99249.31;2617728;54;20075;-69
2022/03/05 11:28:22;;;;;;;7.25;5.18;;;;;;;6.87;33.54;99246.25;2617751;54;20034;-70
2022/03/05 11:30:56;;;;;;;8.82;6.13;;;;;;;6.83;33.15;99250.16;2617936;54;20034;-70
2022/03/05 11:33:38;;;;;;;7.70;5.53;;;;;;;6.86;33.84;99246.41;2617451;51;20022;-70
2022/03/05 11:36:10;;;;;;;7.57;6.20;;;;;;;6.93;33.80;99242.13;2617283;47;20018;-72
2022/03/05 11:38:41;;;;;;;8.93;5.88;;;;;;;7.05;34.11;99240.06;2617738;47;20568;-71
2022/03/05 11:41:30;;;;;;;7.68;5.88;;;;;;;7.09;33.72;99229.06;2619024;39;20418;-70